Station Historical Data
Daily Summary for January 3, 2017 Units:  Metric    English   Both
Next Day »
Daily Weekly Monthly Yearly Custom
  High: Low: Average:
Temperature: 6.7 °C 0.7 °C 2.8 °C
Dew Point: 6.2 °C -0.1 °C 2.2 °C
Humidity: 97% 95% 96%
Wind Speed: 48.3km/h 0km/h 15.9km/h
Wind Gust: 67.6km/h - -
Wind- - SSE
Pressure: 1022.9 hPa 1014.1 hPa -
Precipitation: 36.58 mm    
Historical Graphs
 
 
Tabular Data for January 3, 2017
Time Temperature Dew Point Pressure Wind Wind Speed Wind Gust Humidity Rainfall Rate (Hourly) solar Conditions
00:03 1.5 °C 0.9 °C 1021.9 hPa South 25.7 km/h 30.6 km/h 96% 0 mm 0.00 W/m2
00:08 1.6 °C 1 °C 1021.9 hPa South 14.5 km/h 29 km/h 96% 0 mm 0.00 W/m2
00:13 1.6 °C 1 °C 1021.9 hPa SE 22.5 km/h 37 km/h 96% 0 mm 0.00 W/m2
00:18 1.6 °C 1 °C 1021.9 hPa SSE 11.3 km/h 27.4 km/h 96% 0 mm 0.00 W/m2
00:23 1.6 °C 1 °C 1022.2 hPa South 19.3 km/h 25.7 km/h 96% 0 mm 0.00 W/m2
00:28 1.6 °C 1 °C 1021.9 hPa SE 14.5 km/h 22.5 km/h 96% 0 mm 0.00 W/m2
00:33 1.6 °C 1.1 °C 1022.2 hPa SSW 17.7 km/h 32.2 km/h 96% 0 mm 0.00 W/m2
00:38 1.6 °C 1.1 °C 1021.9 hPa South 8 km/h 40.2 km/h 96% 0 mm 0.00 W/m2
00:43 1.6 °C 1.1 °C 1021.9 hPa South 29 km/h 30.6 km/h 96% 0 mm 0.00 W/m2
00:48 1.6 °C 1.1 °C 1022.2 hPa SSE 17.7 km/h 25.7 km/h 96% 0 mm 0.00 W/m2
00:53 1.6 °C 1 °C 1022.2 hPa South 14.5 km/h 40.2 km/h 96% 0 mm 0.00 W/m2
00:59 1.6 °C 1 °C 1022.2 hPa SE 17.7 km/h 29 km/h 96% 0 mm 0.00 W/m2
01:04 1.5 °C 0.9 °C 1022.2 hPa South 11.3 km/h 33.8 km/h 96% 0 mm 0.00 W/m2
01:09 1.5 °C 0.9 °C 1022.2 hPa SSW 11.3 km/h 22.5 km/h 96% 0 mm 0.00 W/m2
01:14 1.4 °C 0.7 °C 1022.2 hPa SW 17.7 km/h 29 km/h 95% 0 mm 0.00 W/m2
01:19 1.3 °C 0.6 °C 1022.2 hPa SSE 19.3 km/h 22.5 km/h 95% 0 mm 0.00 W/m2
01:24 1.3 °C 0.6 °C 1021.9 hPa SSE 16.1 km/h 30.6 km/h 95% 0 mm 0.00 W/m2
01:29 1.2 °C 0.5 °C 1022.2 hPa South 9.7 km/h 29 km/h 95% 0 mm 0.00 W/m2
01:34 1.2 °C 0.4 °C 1022.2 hPa South 16.1 km/h 25.7 km/h 95% 2.03 mm 0.00 W/m2
01:39 1.1 °C 0.3 °C 1022.2 hPa South 14.5 km/h 22.5 km/h 95% 2.03 mm 0.00 W/m2
01:44 1 °C 0.3 °C 1022.2 hPa South 20.9 km/h 20.9 km/h 95% 2.29 mm 0.00 W/m2
01:49 1 °C 0.3 °C 1022.2 hPa SE 19.3 km/h 27.4 km/h 95% 1.78 mm 0.00 W/m2
01:54 1 °C 0.3 °C 1022.2 hPa SSW 12.9 km/h 29 km/h 95% 1.78 mm 0.00 W/m2
01:59 1.1 °C 0.3 °C 1022.2 hPa South 17.7 km/h 30.6 km/h 95% 1.52 mm 0.00 W/m2
02:04 1.1 °C 0.3 °C 1022.6 hPa SSE 12.9 km/h 37 km/h 95% 1.02 mm 0.00 W/m2
02:09 1.1 °C 0.4 °C 1022.6 hPa South 20.9 km/h 29 km/h 95% 0 mm 0.00 W/m2
02:14 1.2 °C 0.4 °C 1022.6 hPa South 11.3 km/h 29 km/h 95% 0 mm 0.00 W/m2
02:19 1.2 °C 0.7 °C 1022.9 hPa SSE 9.7 km/h 30.6 km/h 96% 0 mm 0.00 W/m2
02:24 1.3 °C 0.7 °C 1022.9 hPa South 4.8 km/h 25.7 km/h 96% 0 mm 0.00 W/m2
02:29 1.3 °C 0.8 °C 1022.9 hPa SSE 30.6 km/h 30.6 km/h 96% 0 mm 0.00 W/m2
02:34 1.3 °C 0.8 °C 1022.9 hPa SSE 12.9 km/h 25.7 km/h 96% 0 mm 0.00 W/m2
02:39 1.3 °C 0.8 °C 1022.9 hPa SSW 20.9 km/h 27.4 km/h 96% 0 mm 0.00 W/m2
02:44 1.4 °C 0.8 °C 1022.9 hPa South 12.9 km/h 25.7 km/h 96% 0 mm 0.00 W/m2
02:49 1.4 °C 0.9 °C 1022.6 hPa SSE 14.5 km/h 20.9 km/h 96% 0 mm 0.00 W/m2
02:54 1.4 °C 0.9 °C 1022.6 hPa South 12.9 km/h 20.9 km/h 96% 1.78 mm 0.00 W/m2
02:59 1.4 °C 0.8 °C 1022.6 hPa South 12.9 km/h 20.9 km/h 96% 3.05 mm 0.00 W/m2
03:04 1.3 °C 0.6 °C 1022.9 hPa SSW 11.3 km/h 22.5 km/h 95% 4.32 mm 0.00 W/m2
03:09 1.3 °C 0.7 °C 1022.9 hPa SW 9.7 km/h 14.5 km/h 96% 4.57 mm 0.00 W/m2
03:14 1.2 °C 0.6 °C 1022.6 hPa Calm   9.7 km/h 96% 6.1 mm 0.00 W/m2
03:19 1.1 °C 0.3 °C 1022.6 hPa Calm     95% 5.33 mm 0.00 W/m2
03:24 0.9 °C 0.2 °C 1022.6 hPa Calm     95% 3.56 mm 0.00 W/m2
03:29 0.8 °C 0.1 °C 1022.6 hPa Calm     95% 3.56 mm 0.00 W/m2
03:34 0.7 °C 0 °C 1022.6 hPa Calm     95% 3.05 mm 0.00 W/m2
03:39 0.7 °C -0.1 °C 1022.6 hPa SSE 8 km/h 24.1 km/h 95% 3.3 mm 0.00 W/m2
03:44 0.7 °C 0 °C 1022.6 hPa SSW 11.3 km/h 14.5 km/h 95% 3.05 mm 0.00 W/m2
03:49 0.7 °C -0.1 °C 1022.6 hPa South 4.8 km/h 22.5 km/h 95% 4.06 mm 0.00 W/m2
03:54 0.7 °C -0.1 °C 1022.6 hPa SSE 20.9 km/h 24.1 km/h 95% 5.59 mm 0.00 W/m2
03:59 0.8 °C 0.1 °C 1022.6 hPa Calm   20.9 km/h 95% 6.35 mm 0.00 W/m2
04:04 0.9 °C 0.3 °C 1022.6 hPa Calm     96% 6.6 mm 0.00 W/m2
04:09 0.9 °C 0.4 °C 1022.6 hPa SSE 17.7 km/h 17.7 km/h 96% 2.54 mm 0.00 W/m2
04:14 1 °C 0.4 °C 1022.6 hPa WSW 9.7 km/h 19.3 km/h 96% 1.78 mm 0.00 W/m2
04:19 1.1 °C 0.6 °C 1022.6 hPa SSW 3.2 km/h 4.8 km/h 96% 3.3 mm 0.00 W/m2
04:24 1.2 °C 0.6 °C 1022.6 hPa Calm   9.7 km/h 96% 2.54 mm 0.00 W/m2
04:29 1.3 °C 0.7 °C 1022.6 hPa SSW 12.9 km/h 16.1 km/h 96% 3.56 mm 0.00 W/m2
04:34 1.3 °C 0.8 °C 1022.6 hPa Calm   14.5 km/h 96% 2.29 mm 0.00 W/m2
04:39 1.4 °C 0.8 °C 1022.6 hPa Calm   8 km/h 96% 5.08 mm 0.00 W/m2
04:44 1.4 °C 0.8 °C 1022.6 hPa Calm     96% 4.06 mm 0.00 W/m2
04:49 1.4 °C 0.8 °C 1022.6 hPa South 8 km/h 19.3 km/h 96% 3.05 mm 0.00 W/m2
04:54 1.4 °C 0.8 °C 1022.2 hPa SSW 14.5 km/h 32.2 km/h 96% 2.29 mm 0.00 W/m2
04:59 1.5 °C 0.9 °C 1022.2 hPa South 1.6 km/h 22.5 km/h 96% 3.3 mm 0.00 W/m2
05:04 1.6 °C 1.1 °C 1022.2 hPa SSW 19.3 km/h 24.1 km/h 96% 1.52 mm 0.00 W/m2
05:09 1.7 °C 1.1 °C 1022.2 hPa SSW 22.5 km/h 33.8 km/h 96% 1.02 mm 0.00 W/m2
05:14 1.8 °C 1.2 °C 1022.2 hPa South 16.1 km/h 20.9 km/h 96% 1.02 mm 0.00 W/m2
05:19 1.8 °C 1.3 °C 1022.2 hPa South 11.3 km/h 20.9 km/h 96% 1.02 mm 0.00 W/m2
05:24 1.9 °C 1.3 °C 1022.2 hPa SSW 4.8 km/h 19.3 km/h 96% 1.27 mm 0.00 W/m2
05:29 1.9 °C 1.4 °C 1022.6 hPa Calm   19.3 km/h 96% 1.27 mm 0.00 W/m2
05:34 2 °C 1.4 °C 1022.6 hPa South 19.3 km/h 25.7 km/h 96% 1.27 mm 0.00 W/m2
05:39 2 °C 1.4 °C 1022.2 hPa SSE 14.5 km/h 19.3 km/h 96% 0 mm 0.00 W/m2
05:44 2.1 °C 1.5 °C 1022.2 hPa Calm   22.5 km/h 96% 0 mm 0.00 W/m2
05:49 2.1 °C 1.5 °C 1022.2 hPa South 16.1 km/h 27.4 km/h 96% 0 mm 0.00 W/m2
05:54 2.1 °C 1.6 °C 1022.2 hPa SSE 11.3 km/h 19.3 km/h 96% 0 mm 0.00 W/m2
05:59 2.1 °C 1.5 °C 1022.2 hPa South 20.9 km/h 29 km/h 96% 0 mm 0.00 W/m2
06:04 2.1 °C 1.5 °C 1021.9 hPa SSE 9.7 km/h 27.4 km/h 96% 0 mm 0.00 W/m2
06:09 2.1 °C 1.5 °C 1021.9 hPa SE 12.9 km/h 24.1 km/h 96% 0 mm 0.00 W/m2
06:14 2.1 °C 1.5 °C 1021.9 hPa SSE 22.5 km/h 30.6 km/h 96% 0 mm 0.00 W/m2
06:19 2.1 °C 1.5 °C 1021.9 hPa SE 1.6 km/h 30.6 km/h 96% 0 mm 0.00 W/m2
06:24 2.1 °C 1.5 °C 1021.9 hPa SSE 16.1 km/h 27.4 km/h 96% 0 mm 0.00 W/m2
06:29 1.9 °C 1.4 °C 1021.9 hPa SSE 6.4 km/h 24.1 km/h 96% 0 mm 0.00 W/m2
06:30 1.9 °C 1.4 °C 1021.9 hPa Calm   24.1 km/h 96% 0 mm 0.00 W/m2
06:35 1.9 °C 1.3 °C 1021.9 hPa SE 12.9 km/h 22.5 km/h 96% 0 mm 0.00 W/m2
06:40 1.8 °C 1.3 °C 1021.9 hPa SSE 14.5 km/h 37 km/h 96% 0 mm 0.00 W/m2
06:45 1.8 °C 1.2 °C 1021.9 hPa SSE 11.3 km/h 25.7 km/h 96% 1.02 mm 0.00 W/m2
06:50 1.7 °C 1.2 °C 1021.6 hPa SSE 11.3 km/h 27.4 km/h 96% 1.02 mm 0.00 W/m2
06:55 1.7 °C 1.1 °C 1021.6 hPa SSE 17.7 km/h 30.6 km/h 96% 1.02 mm 0.00 W/m2
07:00 1.7 °C 1.1 °C 1021.6 hPa SSE 14.5 km/h 24.1 km/h 96% 1.27 mm 0.00 W/m2
07:05 1.7 °C 1.1 °C 1021.6 hPa SSE 22.5 km/h 29 km/h 96% 1.27 mm 0.00 W/m2
07:10 1.6 °C 1.1 °C 1021.6 hPa SSE 11.3 km/h 29 km/h 96% 1.02 mm 0.00 W/m2
07:15 1.6 °C 1.1 °C 1021.6 hPa Calm   27.4 km/h 96% 0 mm 0.00 W/m2
07:20 1.6 °C 1 °C 1021.6 hPa South 17.7 km/h 27.4 km/h 96% 0 mm 0.00 W/m2
07:25 1.6 °C 1 °C 1021.9 hPa SE 20.9 km/h 29 km/h 96% 0 mm 0.00 W/m2
07:30 1.6 °C 1 °C 1021.6 hPa SE 9.7 km/h 22.5 km/h 96% 0 mm 0.00 W/m2
07:35 1.6 °C 1 °C 1021.6 hPa South 14.5 km/h 30.6 km/h 96% 1.02 mm 0.00 W/m2
07:40 1.5 °C 0.9 °C 1021.6 hPa SSE 16.1 km/h 24.1 km/h 96% 1.02 mm 0.00 W/m2
07:46 1.5 °C 0.9 °C 1021.6 hPa Calm   27.4 km/h 96% 1.27 mm 5.00 W/m2
07:51 1.5 °C 0.9 °C 1021.6 hPa South 14.5 km/h 25.7 km/h 96% 1.27 mm 7.00 W/m2
07:56 1.6 °C 1 °C 1021.6 hPa Calm   24.1 km/h 96% 1.27 mm 9.00 W/m2
08:01 1.6 °C 1 °C 1021.6 hPa SSE 14.5 km/h 30.6 km/h 96% 1.02 mm 12.00 W/m2
08:06 1.6 °C 1 °C 1021.9 hPa SSE 12.9 km/h 30.6 km/h 96% 0 mm 19.00 W/m2
08:11 1.6 °C 1 °C 1021.9 hPa SSE 11.3 km/h 20.9 km/h 96% 0 mm 7.00 W/m2
08:16 1.6 °C 1 °C 1021.9 hPa SSE 20.9 km/h 32.2 km/h 96% 0 mm 9.00 W/m2
08:21 1.6 °C 1 °C 1021.9 hPa SSE 14.5 km/h 24.1 km/h 96% 1.27 mm 7.00 W/m2
08:26 1.6 °C 1 °C 1021.9 hPa SSE 16.1 km/h 29 km/h 96% 1.27 mm 7.00 W/m2
08:31 1.6 °C 1.1 °C 1021.9 hPa South 8 km/h 32.2 km/h 96% 1.27 mm 23.00 W/m2
08:36 1.7 °C 1.1 °C 1022.2 hPa SSE 20.9 km/h 30.6 km/h 96% 1.27 mm 25.00 W/m2
08:41 1.7 °C 1.1 °C 1022.2 hPa SE 11.3 km/h 25.7 km/h 96% 1.27 mm 12.00 W/m2
08:46 1.7 °C 1.1 °C 1021.9 hPa SSE 19.3 km/h 33.8 km/h 96% 1.78 mm 18.00 W/m2
08:51 1.7 °C 1.1 °C 1021.9 hPa SE 14.5 km/h 30.6 km/h 96% 1.78 mm 19.00 W/m2
08:56 1.7 °C 1.1 °C 1021.9 hPa SE 20.9 km/h 22.5 km/h 96% 1.78 mm 16.00 W/m2
09:01 1.7 °C 1.1 °C 1021.9 hPa SE 14.5 km/h 29 km/h 96% 1.78 mm 21.00 W/m2
09:06 1.7 °C 1.2 °C 1021.9 hPa SE 8 km/h 33.8 km/h 96% 1.78 mm 21.00 W/m2
09:11 1.7 °C 1.2 °C 1021.9 hPa SSE 17.7 km/h 25.7 km/h 96% 1.52 mm 25.00 W/m2
09:16 1.7 °C 1.2 °C 1021.9 hPa SSE 12.9 km/h 24.1 km/h 96% 1.52 mm 33.00 W/m2
09:21 1.7 °C 1.2 °C 1021.6 hPa SSE 25.7 km/h 32.2 km/h 96% 2.03 mm 47.00 W/m2
09:26 1.7 °C 1.2 °C 1021.6 hPa SSE 20.9 km/h 27.4 km/h 96% 1.52 mm 58.00 W/m2
09:31 1.8 °C 1.2 °C 1021.9 hPa SSE 17.7 km/h 29 km/h 96% 1.52 mm 54.00 W/m2
09:36 1.8 °C 1.2 °C 1021.6 hPa SE 17.7 km/h 27.4 km/h 96% 1.78 mm 46.00 W/m2
09:41 1.8 °C 1.3 °C 1021.6 hPa SSE 12.9 km/h 20.9 km/h 96% 1.78 mm 46.00 W/m2
09:46 1.8 °C 1.3 °C 1021.9 hPa SSE 16.1 km/h 16.1 km/h 96% 2.03 mm 46.00 W/m2
09:51 1.8 °C 1.3 °C 1021.9 hPa Calm     96% 1.78 mm 53.00 W/m2
09:56 1.8 °C 1.3 °C 1021.9 hPa SE 8 km/h 20.9 km/h 96% 1.27 mm 51.00 W/m2
10:01 1.8 °C 1.3 °C 1021.9 hPa SE 16.1 km/h 20.9 km/h 96% 1.02 mm 51.00 W/m2
10:06 1.8 °C 1.3 °C 1021.9 hPa SE 6.4 km/h 24.1 km/h 96% 1.02 mm 54.00 W/m2
10:11 1.8 °C 1.3 °C 1021.6 hPa SSE 8 km/h 27.4 km/h 96% 1.02 mm 58.00 W/m2
10:16 1.9 °C 1.3 °C 1021.9 hPa SSE 16.1 km/h 29 km/h 96% 1.02 mm 60.00 W/m2
10:21 1.9 °C 1.3 °C 1021.9 hPa SSE 16.1 km/h 20.9 km/h 96% 1.02 mm 65.00 W/m2
10:26 1.9 °C 1.4 °C 1021.9 hPa SSE 8 km/h 30.6 km/h 96% 1.02 mm 76.00 W/m2
10:31 2 °C 1.4 °C 1021.9 hPa SSE 12.9 km/h 32.2 km/h 96% 1.27 mm 67.00 W/m2
10:36 2.1 °C 1.5 °C 1021.9 hPa SE 12.9 km/h 12.9 km/h 96% 1.27 mm 95.00 W/m2
10:41 2.2 °C 1.6 °C 1021.6 hPa SSE 12.9 km/h 33.8 km/h 96% 1.02 mm 111.00 W/m2
10:46 2.2 °C 1.7 °C 1021.6 hPa SE 11.3 km/h 33.8 km/h 96% 1.02 mm 135.00 W/m2
10:51 2.3 °C 1.7 °C 1021.6 hPa SSE 11.3 km/h 25.7 km/h 96% 1.02 mm 125.00 W/m2
10:56 2.3 °C 1.7 °C 1021.2 hPa SSE 14.5 km/h 24.1 km/h 96% 1.02 mm 118.00 W/m2
11:01 2.3 °C 1.8 °C 1021.2 hPa SSE 12.9 km/h 16.1 km/h 96% 0 mm 123.00 W/m2
11:06 2.3 °C 1.8 °C 1020.9 hPa SE 24.1 km/h 25.7 km/h 96% 0 mm 100.00 W/m2
11:11 2.4 °C 1.8 °C 1020.9 hPa SSE 6.4 km/h 12.9 km/h 96% 0 mm 97.00 W/m2
11:16 2.4 °C 1.8 °C 1020.5 hPa SSE 14.5 km/h 20.9 km/h 96% 0 mm 116.00 W/m2
11:21 2.4 °C 1.8 °C 1020.9 hPa SSE 11.3 km/h 11.3 km/h 96% 0 mm 105.00 W/m2
11:26 2.4 °C 1.9 °C 1020.9 hPa SE 14.5 km/h 14.5 km/h 96% 0 mm 120.00 W/m2
11:31 2.4 °C 1.9 °C 1020.9 hPa SE 6.4 km/h 8 km/h 96% 0 mm 97.00 W/m2
11:36 2.4 °C 1.9 °C 1020.5 hPa SE 11.3 km/h 12.9 km/h 96% 0 mm 93.00 W/m2
11:41 2.4 °C 1.8 °C 1020.5 hPa SE 16.1 km/h 16.1 km/h 96% 0 mm 113.00 W/m2
11:46 2.4 °C 1.8 °C 1020.5 hPa SE 19.3 km/h 19.3 km/h 96% 0 mm 105.00 W/m2
11:51 2.4 °C 1.9 °C 1020.5 hPa SE 17.7 km/h 19.3 km/h 96% 0 mm 90.00 W/m2
11:56 2.4 °C 1.9 °C 1020.5 hPa SE 17.7 km/h 19.3 km/h 96% 0 mm 97.00 W/m2
12:01 2.4 °C 1.9 °C 1020.2 hPa SE 11.3 km/h 14.5 km/h 96% 0 mm 90.00 W/m2
12:06 2.4 °C 1.9 °C 1020.2 hPa SE 16.1 km/h 20.9 km/h 96% 0 mm 95.00 W/m2
12:11 2.4 °C 1.9 °C 1019.9 hPa SE 8 km/h 12.9 km/h 96% 0 mm 84.00 W/m2
12:16 2.4 °C 1.9 °C 1019.9 hPa SSE 12.9 km/h 14.5 km/h 96% 0 mm 97.00 W/m2
12:21 2.4 °C 1.9 °C 1019.5 hPa SE 11.3 km/h 12.9 km/h 96% 0 mm 88.00 W/m2
12:26 2.4 °C 1.9 °C 1019.9 hPa SE 16.1 km/h 20.9 km/h 96% 0 mm 95.00 W/m2
12:31 2.6 °C 2 °C 1019.2 hPa SSE 17.7 km/h 27.4 km/h 96% 0 mm 111.00 W/m2
12:36 2.7 °C 2.1 °C 1019.2 hPa SE 8 km/h 24.1 km/h 96% 0 mm 91.00 W/m2
12:41 2.7 °C 2.2 °C 1019.2 hPa SE 17.7 km/h 20.9 km/h 96% 0 mm 88.00 W/m2
12:46 2.8 °C 2.2 °C 1019.2 hPa SE 30.6 km/h 32.2 km/h 96% 0 mm 111.00 W/m2
12:51 2.8 °C 2.2 °C 1018.8 hPa SE 14.5 km/h 37 km/h 96% 0 mm 118.00 W/m2
12:56 2.8 °C 2.2 °C 1018.8 hPa SSE 20.9 km/h 24.1 km/h 96% 0 mm 91.00 W/m2
13:01 2.8 °C 2.3 °C 1018.8 hPa SE 8 km/h 30.6 km/h 96% 0 mm 79.00 W/m2
13:06 2.8 °C 2.3 °C 1018.8 hPa SE 16.1 km/h 24.1 km/h 96% 0 mm 77.00 W/m2
13:11 2.8 °C 2.3 °C 1018.5 hPa SSE 14.5 km/h 24.1 km/h 96% 0 mm 74.00 W/m2
13:16 2.8 °C 2.3 °C 1018.5 hPa ESE 14.5 km/h 19.3 km/h 96% 0 mm 76.00 W/m2
13:21 2.9 °C 2.3 °C 1018.5 hPa SSE 12.9 km/h 16.1 km/h 96% 0 mm 83.00 W/m2
13:26 2.9 °C 2.3 °C 1018.5 hPa ESE 22.5 km/h 22.5 km/h 96% 0 mm 88.00 W/m2
13:31 2.9 °C 2.3 °C 1018.5 hPa SSE 14.5 km/h 16.1 km/h 96% 0 mm 90.00 W/m2
13:36 2.9 °C 2.4 °C 1018.5 hPa SE 12.9 km/h 20.9 km/h 96% 0 mm 74.00 W/m2
13:41 3 °C 2.4 °C 1018.5 hPa SSE 11.3 km/h 20.9 km/h 96% 0 mm 70.00 W/m2
13:46 3 °C 2.4 °C 1018.5 hPa SSE 11.3 km/h 16.1 km/h 96% 0 mm 62.00 W/m2
13:51 3 °C 2.4 °C 1018.5 hPa SE 29 km/h 29 km/h 96% 0 mm 53.00 W/m2
13:56 3 °C 2.4 °C 1018.5 hPa South 20.9 km/h 25.7 km/h 96% 0 mm 47.00 W/m2
14:02 3.1 °C 2.5 °C 1018.5 hPa South 9.7 km/h 17.7 km/h 96% 0 mm 47.00 W/m2
14:07 3.1 °C 2.5 °C 1018.5 hPa SSE 9.7 km/h 24.1 km/h 96% 0 mm 47.00 W/m2
14:12 3.1 °C 2.5 °C 1018.5 hPa SSE 17.7 km/h 24.1 km/h 96% 0 mm 44.00 W/m2
14:17 3.1 °C 2.5 °C 1018.5 hPa SSE 16.1 km/h 22.5 km/h 96% 0 mm 40.00 W/m2
14:22 3.1 °C 2.5 °C 1018.5 hPa SSE 20.9 km/h 25.7 km/h 96% 1.27 mm 32.00 W/m2
14:27 3.1 °C 2.6 °C 1018.5 hPa SE 14.5 km/h 24.1 km/h 96% 1.27 mm 32.00 W/m2
14:32 3.2 °C 2.6 °C 1018.5 hPa SSE 3.2 km/h 38.6 km/h 96% 1.52 mm 30.00 W/m2
14:37 3.1 °C 2.6 °C 1018.5 hPa SSE 6.4 km/h 27.4 km/h 96% 3.05 mm 32.00 W/m2
14:42 3.1 °C 2.6 °C 1018.5 hPa South 29 km/h 29 km/h 96% 2.03 mm 26.00 W/m2
14:47 3.2 °C 2.6 °C 1018.5 hPa South 14.5 km/h 38.6 km/h 96% 2.03 mm 25.00 W/m2
14:52 3.2 °C 2.6 °C 1018.5 hPa SSE 20.9 km/h 22.5 km/h 96% 2.29 mm 23.00 W/m2
14:57 3.2 °C 2.6 °C 1018.5 hPa SSE 11.3 km/h 22.5 km/h 96% 2.54 mm 18.00 W/m2
15:02 3.1 °C 2.6 °C 1018.5 hPa South 9.7 km/h 33.8 km/h 96% 3.56 mm 18.00 W/m2
15:07 3.1 °C 2.6 °C 1018.5 hPa South 17.7 km/h 30.6 km/h 96% 3.3 mm 16.00 W/m2
15:12 3.1 °C 2.6 °C 1018.5 hPa SSE 6.4 km/h 30.6 km/h 96% 3.81 mm 14.00 W/m2
15:17 3.1 °C 2.5 °C 1018.5 hPa SSE 17.7 km/h 24.1 km/h 96% 3.56 mm 11.00 W/m2
15:22 3 °C 2.4 °C 1018.5 hPa South 16.1 km/h 24.1 km/h 96% 3.56 mm 12.00 W/m2
15:27 2.9 °C 2.4 °C 1018.5 hPa SSE 16.1 km/h 25.7 km/h 96% 3.56 mm 12.00 W/m2
15:32 2.9 °C 2.4 °C 1018.5 hPa South 20.9 km/h 38.6 km/h 96% 3.3 mm 12.00 W/m2
15:37 2.9 °C 2.3 °C 1018.5 hPa SE 17.7 km/h 27.4 km/h 96% 4.32 mm 9.00 W/m2
15:42 2.8 °C 2.3 °C 1018.5 hPa SE 30.6 km/h 35.4 km/h 96% 2.54 mm 9.00 W/m2
15:47 2.8 °C 2.3 °C 1018.5 hPa SE 17.7 km/h 37 km/h 96% 2.54 mm 9.00 W/m2
15:52 2.8 °C 2.3 °C 1018.5 hPa SSE 25.7 km/h 30.6 km/h 96% 2.03 mm 9.00 W/m2
15:57 2.8 °C 2.2 °C 1018.5 hPa SSW 14.5 km/h 35.4 km/h 96% 1.78 mm 7.00 W/m2
16:02 2.8 °C 2.2 °C 1018.2 hPa ESE 33.8 km/h 43.5 km/h 96% 1.78 mm 7.00 W/m2
16:07 2.7 °C 2.2 °C 1018.2 hPa South 17.7 km/h 33.8 km/h 96% 1.78 mm 7.00 W/m2
16:12 2.7 °C 2.2 °C 1017.8 hPa SSE 12.9 km/h 33.8 km/h 96% 1.78 mm 5.00 W/m2
16:17 2.7 °C 2.2 °C 1017.8 hPa SE 22.5 km/h 29 km/h 96% 1.52 mm 5.00 W/m2
16:22 2.7 °C 2.1 °C 1017.8 hPa South 12.9 km/h 51.5 km/h 96% 1.52 mm 5.00 W/m2
16:27 2.7 °C 2.1 °C 1017.8 hPa SE 24.1 km/h 45.1 km/h 96% 1.52 mm 5.00 W/m2
16:32 2.7 °C 2.1 °C 1017.5 hPa SE 16.1 km/h 30.6 km/h 96% 1.52 mm 5.00 W/m2
16:37 2.6 °C 2.1 °C 1017.5 hPa SE 20.9 km/h 33.8 km/h 96% 1.27 mm 0.00 W/m2
16:42 2.6 °C 2.1 °C 1017.5 hPa SSE 12.9 km/h 37 km/h 96% 1.02 mm 0.00 W/m2
16:48 2.6 °C 2.1 °C 1017.2 hPa SE 27.4 km/h 51.5 km/h 96% 1.02 mm 0.00 W/m2
16:53 2.6 °C 2.1 °C 1016.8 hPa SSE 19.3 km/h 43.5 km/h 96% 1.27 mm 0.00 W/m2
16:58 2.7 °C 2.1 °C 1016.8 hPa SE 12.9 km/h 35.4 km/h 96% 1.27 mm 0.00 W/m2
17:03 2.7 °C 2.1 °C 1016.8 hPa SE 8 km/h 37 km/h 96% 1.27 mm 0.00 W/m2
17:08 2.7 °C 2.2 °C 1016.8 hPa SE 19.3 km/h 35.4 km/h 96% 1.02 mm 0.00 W/m2
17:13 2.7 °C 2.2 °C 1016.8 hPa South 16.1 km/h 29 km/h 96% 0 mm 0.00 W/m2
17:18 2.7 °C 2.2 °C 1016.5 hPa SE 22.5 km/h 35.4 km/h 96% 0 mm 0.00 W/m2
17:23 2.8 °C 2.2 °C 1016.5 hPa SSE 24.1 km/h 27.4 km/h 96% 0 mm 0.00 W/m2
17:28 2.8 °C 2.2 °C 1016.5 hPa South 19.3 km/h 38.6 km/h 96% 0 mm 0.00 W/m2
17:33 2.9 °C 2.3 °C 1016.1 hPa Calm   43.5 km/h 96% 0 mm 0.00 W/m2
17:38 2.9 °C 2.4 °C 1016.1 hPa SE 9.7 km/h 35.4 km/h 96% 0 mm 0.00 W/m2
17:43 3 °C 2.4 °C 1016.1 hPa South 6.4 km/h 35.4 km/h 96% 0 mm 0.00 W/m2
17:48 3.1 °C 2.5 °C 1016.1 hPa SSE 30.6 km/h 33.8 km/h 96% 0 mm 0.00 W/m2
17:53 3.1 °C 2.6 °C 1016.1 hPa South 24.1 km/h 38.6 km/h 96% 0 mm 0.00 W/m2
17:58 3.2 °C 2.6 °C 1016.5 hPa SSE 24.1 km/h 43.5 km/h 96% 1.78 mm 0.00 W/m2
18:03 3.3 °C 2.7 °C 1016.1 hPa SSE 22.5 km/h 53.1 km/h 96% 1.78 mm 0.00 W/m2
18:08 3.4 °C 2.8 °C 1016.1 hPa SE 20.9 km/h 48.3 km/h 96% 2.03 mm 0.00 W/m2
18:13 3.4 °C 2.9 °C 1015.8 hPa SE 32.2 km/h 43.5 km/h 96% 1.52 mm 0.00 W/m2
18:18 3.6 °C 3 °C 1015.8 hPa SE 19.3 km/h 29 km/h 96% 1.02 mm 0.00 W/m2
18:23 3.6 °C 3.1 °C 1015.8 hPa SSE 16.1 km/h 43.5 km/h 96% 0 mm 0.00 W/m2
18:28 3.7 °C 3.1 °C 1015.8 hPa ESE 19.3 km/h 38.6 km/h 96% 0 mm 0.00 W/m2
18:33 3.7 °C 3.1 °C 1015.8 hPa SSE 19.3 km/h 45.1 km/h 96% 0 mm 0.00 W/m2
18:38 3.7 °C 3.2 °C 1015.5 hPa SSE 45.1 km/h 45.1 km/h 96% 0 mm 0.00 W/m2
18:43 3.8 °C 3.2 °C 1015.5 hPa SSE 24.1 km/h 43.5 km/h 96% 0 mm 0.00 W/m2
18:48 3.8 °C 3.3 °C 1015.5 hPa ESE 46.7 km/h 46.7 km/h 96% 0 mm 0.00 W/m2
18:53 3.8 °C 3.3 °C 1015.8 hPa SSE 19.3 km/h 40.2 km/h 96% 0 mm 0.00 W/m2
18:58 3.8 °C 3.3 °C 1015.5 hPa SE 14.5 km/h 37 km/h 96% 0 mm 0.00 W/m2
19:03 3.8 °C 3.3 °C 1015.8 hPa SE 9.7 km/h 35.4 km/h 96% 0 mm 0.00 W/m2
19:08 3.9 °C 3.3 °C 1015.8 hPa SE 20.9 km/h 46.7 km/h 96% 0 mm 0.00 W/m2
19:13 4 °C 3.4 °C 1015.8 hPa SSE 16.1 km/h 41.8 km/h 96% 0 mm 0.00 W/m2
19:18 4.1 °C 3.6 °C 1015.8 hPa SE 19.3 km/h 37 km/h 96% 0 mm 0.00 W/m2
19:23 4.2 °C 3.7 °C 1015.8 hPa South 19.3 km/h 37 km/h 96% 0 mm 0.00 W/m2
19:28 4.3 °C 3.8 °C 1015.8 hPa SSE 24.1 km/h 37 km/h 96% 0 mm 0.00 W/m2
19:33 4.4 °C 3.8 °C 1016.1 hPa SSE 11.3 km/h 40.2 km/h 96% 1.27 mm 0.00 W/m2
19:38 4.4 °C 3.8 °C 1016.1 hPa ESE 9.7 km/h 41.8 km/h 96% 2.54 mm 0.00 W/m2
19:43 4.4 °C 3.9 °C 1016.1 hPa SSE 16.1 km/h 30.6 km/h 96% 2.54 mm 0.00 W/m2
19:48 4.5 °C 3.9 °C 1015.8 hPa SE 12.9 km/h 43.5 km/h 96% 4.57 mm 0.00 W/m2
19:53 4.6 °C 4 °C 1016.1 hPa South 17.7 km/h 33.8 km/h 96% 5.33 mm 0.00 W/m2
19:58 4.6 °C 4 °C 1016.1 hPa South 6.4 km/h 32.2 km/h 96% 6.35 mm 0.00 W/m2
20:03 4.6 °C 4 °C 1015.8 hPa SSE 33.8 km/h 38.6 km/h 96% 4.32 mm 0.00 W/m2
20:08 4.6 °C 4 °C 1015.8 hPa SSE 20.9 km/h 41.8 km/h 96% 4.57 mm 0.00 W/m2
20:13 4.6 °C 4 °C 1015.8 hPa SSE 22.5 km/h 32.2 km/h 96% 5.33 mm 0.00 W/m2
20:18 4.6 °C 4 °C 1015.8 hPa SSE 14.5 km/h 35.4 km/h 96% 2.03 mm 0.00 W/m2
20:24 4.7 °C 4.1 °C 1015.8 hPa SSE 11.3 km/h 37 km/h 96% 1.27 mm 0.00 W/m2
20:29 4.7 °C 4.1 °C 1015.8 hPa SSE 29 km/h 32.2 km/h 96% 1.27 mm 0.00 W/m2
20:34 4.7 °C 4.2 °C 1015.8 hPa SE 33.8 km/h 33.8 km/h 96% 1.27 mm 0.00 W/m2
20:39 4.7 °C 4.2 °C 1015.5 hPa South 14.5 km/h 40.2 km/h 96% 1.02 mm 0.00 W/m2
20:44 4.7 °C 4.2 °C 1015.5 hPa SE 19.3 km/h 43.5 km/h 96% 0 mm 0.00 W/m2
20:49 4.8 °C 4.2 °C 1015.5 hPa SSE 9.7 km/h 49.9 km/h 96% 0 mm 0.00 W/m2
20:54 4.8 °C 4.2 °C 1015.5 hPa SE 24.1 km/h 37 km/h 96% 0 mm 0.00 W/m2
20:59 4.8 °C 4.3 °C 1015.5 hPa SE 24.1 km/h 41.8 km/h 96% 0 mm 0.00 W/m2
21:04 4.8 °C 4.3 °C 1015.5 hPa South 20.9 km/h 37 km/h 96% 0 mm 0.00 W/m2
21:09 4.9 °C 4.3 °C 1015.1 hPa SSE 16.1 km/h 37 km/h 96% 0 mm 0.00 W/m2
21:14 4.9 °C 4.3 °C 1015.1 hPa SE 24.1 km/h 43.5 km/h 96% 1.02 mm 0.00 W/m2
21:19 5 °C 4.4 °C 1015.1 hPa SSE 11.3 km/h 38.6 km/h 96% 1.78 mm 0.00 W/m2
21:24 5 °C 4.4 °C 1015.1 hPa East 8 km/h 49.9 km/h 96% 1.78 mm 0.00 W/m2
21:29 5.1 °C 4.4 °C 1015.5 hPa South 16.1 km/h 51.5 km/h 96% 1.27 mm 0.00 W/m2
21:34 5.2 °C 4.6 °C 1015.1 hPa SE 27.4 km/h 49.9 km/h 96% 1.02 mm 0.00 W/m2
21:39 5.3 °C 4.7 °C 1014.8 hPa South 30.6 km/h 40.2 km/h 96% 1.02 mm 0.00 W/m2
21:44 5.3 °C 4.7 °C 1014.4 hPa SSE 19.3 km/h 41.8 km/h 96% 1.02 mm 0.00 W/m2
21:49 5.4 °C 4.8 °C 1014.8 hPa SSE 48.3 km/h 51.5 km/h 96% 1.27 mm 0.00 W/m2
21:54 5.4 °C 4.9 °C 1014.8 hPa SSE 30.6 km/h 67.6 km/h 96% 2.54 mm 0.00 W/m2
21:59 5.6 °C 5 °C 1014.8 hPa SSE 19.3 km/h 49.9 km/h 96% 3.81 mm 0.00 W/m2
22:04 5.7 °C 5.2 °C 1014.8 hPa SSW 29 km/h 41.8 km/h 97% 2.03 mm 0.00 W/m2
22:09 5.7 °C 5.2 °C 1014.8 hPa South 20.9 km/h 40.2 km/h 97% 3.81 mm 0.00 W/m2
22:14 5.7 °C 5.3 °C 1014.4 hPa SSE 17.7 km/h 40.2 km/h 97% 5.84 mm 0.00 W/m2
22:19 5.7 °C 5.3 °C 1014.4 hPa SE 29 km/h 45.1 km/h 97% 2.29 mm 0.00 W/m2
22:24 5.8 °C 5.2 °C 1014.4 hPa SSE 33.8 km/h 46.7 km/h 96% 2.29 mm 0.00 W/m2
22:29 5.8 °C 5.2 °C 1014.1 hPa SSE 27.4 km/h 40.2 km/h 96% 1.27 mm 0.00 W/m2
22:34 5.9 °C 5.3 °C 1014.4 hPa SSE 29 km/h 40.2 km/h 96% 9.4 mm 0.00 W/m2
22:39 5.9 °C 5.3 °C 1014.1 hPa SSW 27.4 km/h 48.3 km/h 96% 2.54 mm 0.00 W/m2
22:44 5.9 °C 5.3 °C 1014.1 hPa South 9.7 km/h 45.1 km/h 96% 1.78 mm 0.00 W/m2
22:49 6 °C 5.6 °C 1014.4 hPa South 22.5 km/h 43.5 km/h 97% 2.29 mm 0.00 W/m2
22:54 6.1 °C 5.6 °C 1014.8 hPa SSE 25.7 km/h 45.1 km/h 97% 5.08 mm 0.00 W/m2
22:59 6.1 °C 5.7 °C 1014.4 hPa South 17.7 km/h 51.5 km/h 97% 4.06 mm 0.00 W/m2
23:04 6.2 °C 5.6 °C 1014.8 hPa SE 11.3 km/h 41.8 km/h 96% 3.3 mm 0.00 W/m2
23:09 6.2 °C 5.6 °C 1014.4 hPa South 24.1 km/h 38.6 km/h 96% 5.08 mm 0.00 W/m2
23:14 6.3 °C 5.7 °C 1014.1 hPa SSW 25.7 km/h 48.3 km/h 96% 2.54 mm 0.00 W/m2
23:19 6.3 °C 5.7 °C 1014.1 hPa SSE 17.7 km/h 46.7 km/h 96% 1.78 mm 0.00 W/m2
23:24 6.3 °C 5.7 °C 1014.8 hPa SSW 35.4 km/h 41.8 km/h 96% 2.54 mm 0.00 W/m2
23:29 6.3 °C 5.9 °C 1014.4 hPa South 25.7 km/h 43.5 km/h 97% 2.29 mm 0.00 W/m2
23:34 6.4 °C 5.9 °C 1014.1 hPa SSE 20.9 km/h 38.6 km/h 97% 1.27 mm 0.00 W/m2
23:39 6.4 °C 6 °C 1014.4 hPa South 19.3 km/h 37 km/h 97% 4.57 mm 0.00 W/m2
23:44 6.5 °C 6.1 °C 1014.1 hPa South 16.1 km/h 40.2 km/h 97% 3.56 mm 0.00 W/m2
23:49 6.6 °C 6.1 °C 1014.4 hPa SSE 30.6 km/h 48.3 km/h 97% 7.37 mm 0.00 W/m2
23:54 6.7 °C 6.2 °C 1014.1 hPa SSE 32.2 km/h 48.3 km/h 97% 7.62 mm 0.00 W/m2
Foresthill Weather
 WU-history PHP script courtesy of   Juneau County Weather.
powered by Cumulus v1.9.3 (1059)
Ambient Weather VWS v14.00
Top Contact Website Map Copyright © 2007 - 2018 Foresthillweather.com Never base important decisions on this or any weather information obtained from the Internet